Terminal Aerodrome Forecast
Issued by NWS

Home | Current Version | Previous Version | Text Only | Print | Product List | Glossary On
Versions: 1 2 3 4 5 6 7 8 9 10 11 12 13 14 15 16 17 18 19 20 21 22
000
FTUS43 KPAH 240402 AAB
TAFCGI
TAF AMD
KCGI 240402Z 2404/2424 34005KT P6SM BKN090
     FM240500 36005KT 5SM BR BKN015
     FM241000 35006KT 3SM BR OVC008
     FM241600 35010KT P6SM OVC012
     FM242100 34012G19KT P6SM SCT020 BKN035=

USA.gov is the U.S. government's official web portal to all federal, state and local government web resources and services.